sensor_id;sensor_type;location;lat;lon;timestamp;P1;durP1;ratioP1;P2;durP2;ratioP2
55136;SDS011;41032;47.818;-3.732;2022-09-09T00:00:44;8.13;;;2.22;;
55136;SDS011;41032;47.818;-3.732;2022-09-09T00:03:23;9.52;;;2.53;;
55136;SDS011;41032;47.818;-3.732;2022-09-09T00:08:47;8.45;;;2.33;;
55136;SDS011;41032;47.818;-3.732;2022-09-09T00:11:23;8.65;;;2.65;;
55136;SDS011;41032;47.818;-3.732;2022-09-09T00:14:13;8.75;;;2.53;;
55136;SDS011;41032;47.818;-3.732;2022-09-09T00:17:03;9.85;;;3.22;;
55136;SDS011;41032;47.818;-3.732;2022-09-09T00:19:47;7.72;;;2.22;;
55136;SDS011;41032;47.818;-3.732;2022-09-09T00:22:36;10.23;;;2.85;;
55136;SDS011;41032;47.818;-3.732;2022-09-09T00:25:12;6.90;;;2.08;;
55136;SDS011;41032;47.818;-3.732;2022-09-09T00:27:45;7.05;;;2.20;;
55136;SDS011;41032;47.818;-3.732;2022-09-09T00:30:17;8.98;;;2.13;;
55136;SDS011;41032;47.818;-3.732;2022-09-09T00:32:50;11.75;;;2.90;;
55136;SDS011;41032;47.818;-3.732;2022-09-09T00:35:25;7.90;;;2.60;;
55136;SDS011;41032;47.818;-3.732;2022-09-09T00:38:02;8.90;;;2.33;;
55136;SDS011;41032;47.818;-3.732;2022-09-09T00:40:41;6.75;;;2.20;;
55136;SDS011;41032;47.818;-3.732;2022-09-09T00:43:26;8.98;;;1.92;;
55136;SDS011;41032;47.818;-3.732;2022-09-09T00:52:03;9.35;;;2.30;;
55136;SDS011;41032;47.818;-3.732;2022-09-09T00:57:48;7.75;;;2.28;;
55136;SDS011;41032;47.818;-3.732;2022-09-09T01:00:21;8.35;;;2.40;;
55136;SDS011;41032;47.818;-3.732;2022-09-09T01:02:52;10.00;;;2.67;;
55136;SDS011;41032;47.818;-3.732;2022-09-09T01:08:01;8.05;;;2.63;;
55136;SDS011;41032;47.818;-3.732;2022-09-09T01:10:52;8.07;;;2.60;;
55136;SDS011;41032;47.818;-3.732;2022-09-09T01:13:28;10.48;;;3.10;;
55136;SDS011;41032;47.818;-3.732;2022-09-09T01:15:59;11.77;;;3.78;;
55136;SDS011;41032;47.818;-3.732;2022-09-09T01:18:32;9.20;;;2.58;;
55136;SDS011;41032;47.818;-3.732;2022-09-09T01:21:05;11.90;;;2.90;;
55136;SDS011;41032;47.818;-3.732;2022-09-09T01:26:48;8.07;;;2.50;;
55136;SDS011;41032;47.818;-3.732;2022-09-09T01:29:17;7.72;;;2.63;;
55136;SDS011;41032;47.818;-3.732;2022-09-09T01:31:53;8.63;;;2.47;;
55136;SDS011;41032;47.818;-3.732;2022-09-09T01:34:22;9.00;;;2.60;;
55136;SDS011;41032;47.818;-3.732;2022-09-09T01:41:56;7.28;;;1.95;;
55136;SDS011;41032;47.818;-3.732;2022-09-09T01:44:24;10.18;;;3.05;;
55136;SDS011;41032;47.818;-3.732;2022-09-09T01:46:54;10.68;;;2.50;;
55136;SDS011;41032;47.818;-3.732;2022-09-09T01:49:22;8.95;;;2.10;;
55136;SDS011;41032;47.818;-3.732;2022-09-09T01:51:53;7.78;;;2.38;;
55136;SDS011;41032;47.818;-3.732;2022-09-09T01:54:23;9.02;;;2.92;;
55136;SDS011;41032;47.818;-3.732;2022-09-09T01:59:50;6.55;;;2.33;;
55136;SDS011;41032;47.818;-3.732;2022-09-09T02:02:32;10.45;;;3.03;;
55136;SDS011;41032;47.818;-3.732;2022-09-09T02:05:45;7.90;;;2.22;;
55136;SDS011;41032;47.818;-3.732;2022-09-09T02:08:09;9.80;;;2.70;;
55136;SDS011;41032;47.818;-3.732;2022-09-09T02:13:27;6.38;;;2.17;;
55136;SDS011;41032;47.818;-3.732;2022-09-09T02:16:00;8.73;;;2.28;;
55136;SDS011;41032;47.818;-3.732;2022-09-09T02:18:38;8.52;;;3.10;;
55136;SDS011;41032;47.818;-3.732;2022-09-09T02:21:18;7.55;;;2.50;;
55136;SDS011;41032;47.818;-3.732;2022-09-09T02:23:47;8.60;;;2.28;;
55136;SDS011;41032;47.818;-3.732;2022-09-09T02:26:19;11.02;;;2.85;;
55136;SDS011;41032;47.818;-3.732;2022-09-09T02:28:49;8.60;;;2.95;;
55136;SDS011;41032;47.818;-3.732;2022-09-09T02:31:19;8.70;;;2.28;;
55136;SDS011;41032;47.818;-3.732;2022-09-09T02:33:59;10.77;;;2.70;;
55136;SDS011;41032;47.818;-3.732;2022-09-09T02:36:31;9.43;;;2.63;;
55136;SDS011;41032;47.818;-3.732;2022-09-09T02:39:00;8.93;;;2.33;;
55136;SDS011;41032;47.818;-3.732;2022-09-09T02:41:31;9.98;;;2.65;;
55136;SDS011;41032;47.818;-3.732;2022-09-09T02:44:00;8.10;;;2.50;;
55136;SDS011;41032;47.818;-3.732;2022-09-09T02:46:34;6.55;;;2.13;;
55136;SDS011;41032;47.818;-3.732;2022-09-09T02:54:32;11.73;;;3.00;;
55136;SDS011;41032;47.818;-3.732;2022-09-09T02:57:12;9.93;;;2.50;;
55136;SDS011;41032;47.818;-3.732;2022-09-09T02:59:45;10.48;;;2.80;;
55136;SDS011;41032;47.818;-3.732;2022-09-09T03:02:15;9.18;;;2.60;;
55136;SDS011;41032;47.818;-3.732;2022-09-09T03:04:44;8.90;;;2.70;;
55136;SDS011;41032;47.818;-3.732;2022-09-09T03:07:18;8.73;;;2.47;;
55136;SDS011;41032;47.818;-3.732;2022-09-09T03:09:49;8.25;;;2.03;;
55136;SDS011;41032;47.818;-3.732;2022-09-09T03:12:21;6.90;;;2.20;;
55136;SDS011;41032;47.818;-3.732;2022-09-09T03:14:50;8.10;;;2.47;;
55136;SDS011;41032;47.818;-3.732;2022-09-09T03:17:20;7.82;;;2.00;;
55136;SDS011;41032;47.818;-3.732;2022-09-09T03:19:47;6.20;;;2.10;;
55136;SDS011;41032;47.818;-3.732;2022-09-09T03:22:19;6.25;;;2.33;;
55136;SDS011;41032;47.818;-3.732;2022-09-09T03:24:48;6.35;;;2.03;;
55136;SDS011;41032;47.818;-3.732;2022-09-09T03:27:17;6.20;;;1.85;;
55136;SDS011;41032;47.818;-3.732;2022-09-09T03:29:45;7.53;;;2.05;;
55136;SDS011;41032;47.818;-3.732;2022-09-09T03:32:18;6.30;;;1.92;;
55136;SDS011;41032;47.818;-3.732;2022-09-09T03:34:49;9.98;;;2.63;;
55136;SDS011;41032;47.818;-3.732;2022-09-09T03:37:16;8.90;;;2.50;;
55136;SDS011;41032;47.818;-3.732;2022-09-09T03:39:46;7.15;;;2.30;;
55136;SDS011;41032;47.818;-3.732;2022-09-09T03:42:14;8.80;;;2.30;;
55136;SDS011;41032;47.818;-3.732;2022-09-09T03:44:47;6.43;;;1.80;;
55136;SDS011;41032;47.818;-3.732;2022-09-09T03:47:17;7.28;;;2.45;;
55136;SDS011;41032;47.818;-3.732;2022-09-09T03:49:47;7.07;;;1.98;;
55136;SDS011;41032;47.818;-3.732;2022-09-09T03:52:16;9.57;;;2.55;;
55136;SDS011;41032;47.818;-3.732;2022-09-09T03:54:45;7.28;;;2.05;;
55136;SDS011;41032;47.818;-3.732;2022-09-09T03:57:14;8.32;;;2.25;;
55136;SDS011;41032;47.818;-3.732;2022-09-09T03:59:43;7.30;;;2.00;;
55136;SDS011;41032;47.818;-3.732;2022-09-09T04:02:12;6.97;;;1.90;;
55136;SDS011;41032;47.818;-3.732;2022-09-09T04:04:41;7.53;;;2.40;;
55136;SDS011;41032;47.818;-3.732;2022-09-09T04:07:10;5.68;;;2.25;;
55136;SDS011;41032;47.818;-3.732;2022-09-09T04:09:38;6.75;;;2.03;;
55136;SDS011;41032;47.818;-3.732;2022-09-09T04:12:07;9.70;;;2.40;;
55136;SDS011;41032;47.818;-3.732;2022-09-09T04:14:39;6.07;;;2.08;;
55136;SDS011;41032;47.818;-3.732;2022-09-09T04:17:08;5.82;;;2.28;;
55136;SDS011;41032;47.818;-3.732;2022-09-09T04:19:36;7.32;;;1.92;;
55136;SDS011;41032;47.818;-3.732;2022-09-09T04:22:05;5.50;;;2.00;;
55136;SDS011;41032;47.818;-3.732;2022-09-09T04:24:33;7.80;;;2.33;;
55136;SDS011;41032;47.818;-3.732;2022-09-09T04:27:03;7.25;;;2.10;;
55136;SDS011;41032;47.818;-3.732;2022-09-09T04:29:30;7.47;;;2.22;;
55136;SDS011;41032;47.818;-3.732;2022-09-09T04:31:59;7.00;;;2.05;;
55136;SDS011;41032;47.818;-3.732;2022-09-09T04:34:28;8.23;;;2.08;;
55136;SDS011;41032;47.818;-3.732;2022-09-09T04:36:57;8.60;;;2.75;;
55136;SDS011;41032;47.818;-3.732;2022-09-09T04:39:26;7.57;;;2.28;;
55136;SDS011;41032;47.818;-3.732;2022-09-09T04:41:56;7.85;;;2.33;;
55136;SDS011;41032;47.818;-3.732;2022-09-09T04:44:23;10.82;;;2.47;;
55136;SDS011;41032;47.818;-3.732;2022-09-09T04:46:53;6.95;;;2.47;;
55136;SDS011;41032;47.818;-3.732;2022-09-09T04:49:21;6.10;;;1.90;;
55136;SDS011;41032;47.818;-3.732;2022-09-09T04:51:49;8.05;;;2.20;;
55136;SDS011;41032;47.818;-3.732;2022-09-09T04:54:20;7.20;;;2.42;;
55136;SDS011;41032;47.818;-3.732;2022-09-09T04:56:50;7.10;;;2.13;;
55136;SDS011;41032;47.818;-3.732;2022-09-09T04:59:18;10.82;;;2.63;;
55136;SDS011;41032;47.818;-3.732;2022-09-09T05:01:46;9.20;;;2.53;;
55136;SDS011;41032;47.818;-3.732;2022-09-09T05:04:16;8.73;;;2.35;;
55136;SDS011;41032;47.818;-3.732;2022-09-09T05:06:45;8.82;;;2.35;;
55136;SDS011;41032;47.818;-3.732;2022-09-09T05:09:13;5.05;;;1.90;;
55136;SDS011;41032;47.818;-3.732;2022-09-09T05:11:42;8.90;;;2.42;;
55136;SDS011;41032;47.818;-3.732;2022-09-09T05:14:09;5.93;;;2.00;;
55136;SDS011;41032;47.818;-3.732;2022-09-09T05:16:38;8.77;;;2.10;;
55136;SDS011;41032;47.818;-3.732;2022-09-09T05:19:06;6.72;;;2.05;;
55136;SDS011;41032;47.818;-3.732;2022-09-09T05:21:36;7.22;;;2.08;;
55136;SDS011;41032;47.818;-3.732;2022-09-09T05:24:03;6.82;;;2.20;;
55136;SDS011;41032;47.818;-3.732;2022-09-09T05:26:33;6.18;;;1.80;;
55136;SDS011;41032;47.818;-3.732;2022-09-09T05:29:00;7.20;;;1.92;;
55136;SDS011;41032;47.818;-3.732;2022-09-09T05:31:30;9.70;;;2.85;;
55136;SDS011;41032;47.818;-3.732;2022-09-09T05:33:58;7.28;;;2.10;;
55136;SDS011;41032;47.818;-3.732;2022-09-09T05:36:28;9.48;;;2.70;;
55136;SDS011;41032;47.818;-3.732;2022-09-09T05:38:56;6.38;;;2.30;;
55136;SDS011;41032;47.818;-3.732;2022-09-09T05:41:25;6.25;;;2.17;;
55136;SDS011;41032;47.818;-3.732;2022-09-09T05:43:53;6.20;;;1.90;;
55136;SDS011;41032;47.818;-3.732;2022-09-09T05:46:22;6.72;;;1.88;;
55136;SDS011;41032;47.818;-3.732;2022-09-09T05:48:51;7.85;;;2.38;;
55136;SDS011;41032;47.818;-3.732;2022-09-09T05:51:22;7.05;;;2.53;;
55136;SDS011;41032;47.818;-3.732;2022-09-09T05:53:52;6.97;;;1.92;;
55136;SDS011;41032;47.818;-3.732;2022-09-09T05:56:25;6.25;;;1.90;;
55136;SDS011;41032;47.818;-3.732;2022-09-09T05:58:54;7.07;;;1.83;;
55136;SDS011;41032;47.818;-3.732;2022-09-09T06:01:25;6.22;;;2.15;;
55136;SDS011;41032;47.818;-3.732;2022-09-09T06:03:55;8.13;;;1.95;;
55136;SDS011;41032;47.818;-3.732;2022-09-09T06:06:25;7.25;;;2.22;;
55136;SDS011;41032;47.818;-3.732;2022-09-09T06:08:57;6.20;;;2.25;;
55136;SDS011;41032;47.818;-3.732;2022-09-09T06:11:26;10.45;;;2.83;;
55136;SDS011;41032;47.818;-3.732;2022-09-09T06:13:59;9.77;;;2.22;;
55136;SDS011;41032;47.818;-3.732;2022-09-09T06:16:31;7.35;;;2.13;;
55136;SDS011;41032;47.818;-3.732;2022-09-09T06:18:59;8.85;;;2.15;;
55136;SDS011;41032;47.818;-3.732;2022-09-09T06:21:30;8.32;;;2.22;;
55136;SDS011;41032;47.818;-3.732;2022-09-09T06:24:02;5.88;;;1.60;;
55136;SDS011;41032;47.818;-3.732;2022-09-09T06:26:32;7.90;;;2.05;;
55136;SDS011;41032;47.818;-3.732;2022-09-09T06:29:02;9.35;;;2.30;;
55136;SDS011;41032;47.818;-3.732;2022-09-09T06:31:32;11.05;;;2.47;;
55136;SDS011;41032;47.818;-3.732;2022-09-09T06:34:04;4.97;;;1.55;;
55136;SDS011;41032;47.818;-3.732;2022-09-09T06:36:34;6.63;;;1.90;;
55136;SDS011;41032;47.818;-3.732;2022-09-09T06:39:04;9.18;;;2.40;;
55136;SDS011;41032;47.818;-3.732;2022-09-09T06:41:33;9.00;;;2.33;;
55136;SDS011;41032;47.818;-3.732;2022-09-09T06:44:01;6.32;;;1.65;;
55136;SDS011;41032;47.818;-3.732;2022-09-09T06:46:31;6.10;;;2.00;;
55136;SDS011;41032;47.818;-3.732;2022-09-09T06:48:59;8.50;;;2.10;;
55136;SDS011;41032;47.818;-3.732;2022-09-09T06:51:29;7.30;;;2.00;;
55136;SDS011;41032;47.818;-3.732;2022-09-09T06:53:59;8.25;;;2.15;;
55136;SDS011;41032;47.818;-3.732;2022-09-09T06:56:29;9.10;;;2.50;;
55136;SDS011;41032;47.818;-3.732;2022-09-09T06:59:00;8.57;;;2.15;;
55136;SDS011;41032;47.818;-3.732;2022-09-09T07:01:32;5.97;;;1.90;;
55136;SDS011;41032;47.818;-3.732;2022-09-09T07:04:01;8.00;;;2.10;;
55136;SDS011;41032;47.818;-3.732;2022-09-09T07:06:36;8.63;;;2.50;;
55136;SDS011;41032;47.818;-3.732;2022-09-09T07:09:06;7.80;;;2.13;;
55136;SDS011;41032;47.818;-3.732;2022-09-09T07:11:40;6.15;;;1.70;;
55136;SDS011;41032;47.818;-3.732;2022-09-09T07:14:09;7.30;;;1.85;;
55136;SDS011;41032;47.818;-3.732;2022-09-09T07:16:41;10.27;;;2.55;;
55136;SDS011;41032;47.818;-3.732;2022-09-09T07:19:12;8.38;;;2.58;;
55136;SDS011;41032;47.818;-3.732;2022-09-09T07:21:41;10.85;;;2.78;;
55136;SDS011;41032;47.818;-3.732;2022-09-09T07:24:10;11.20;;;3.17;;
55136;SDS011;41032;47.818;-3.732;2022-09-09T07:26:39;6.78;;;2.00;;
55136;SDS011;41032;47.818;-3.732;2022-09-09T07:29:08;9.98;;;2.22;;
55136;SDS011;41032;47.818;-3.732;2022-09-09T07:31:39;7.88;;;2.35;;
55136;SDS011;41032;47.818;-3.732;2022-09-09T07:34:08;10.52;;;2.33;;
55136;SDS011;41032;47.818;-3.732;2022-09-09T07:36:37;12.65;;;2.63;;
55136;SDS011;41032;47.818;-3.732;2022-09-09T07:39:08;9.52;;;2.60;;
55136;SDS011;41032;47.818;-3.732;2022-09-09T07:41:39;10.60;;;2.25;;
55136;SDS011;41032;47.818;-3.732;2022-09-09T07:44:10;19.45;;;2.67;;
55136;SDS011;41032;47.818;-3.732;2022-09-09T07:46:42;7.22;;;2.05;;
55136;SDS011;41032;47.818;-3.732;2022-09-09T07:49:11;9.05;;;2.15;;
55136;SDS011;41032;47.818;-3.732;2022-09-09T07:51:40;11.38;;;2.63;;
55136;SDS011;41032;47.818;-3.732;2022-09-09T07:54:10;14.27;;;3.00;;
55136;SDS011;41032;47.818;-3.732;2022-09-09T07:56:40;12.18;;;3.17;;
55136;SDS011;41032;47.818;-3.732;2022-09-09T07:59:09;9.85;;;2.95;;
55136;SDS011;41032;47.818;-3.732;2022-09-09T08:01:39;16.83;;;3.17;;
55136;SDS011;41032;47.818;-3.732;2022-09-09T08:04:10;13.20;;;2.90;;
55136;SDS011;41032;47.818;-3.732;2022-09-09T08:06:43;9.95;;;2.80;;
55136;SDS011;41032;47.818;-3.732;2022-09-09T08:09:12;11.30;;;2.85;;
55136;SDS011;41032;47.818;-3.732;2022-09-09T08:11:41;13.40;;;2.78;;
55136;SDS011;41032;47.818;-3.732;2022-09-09T08:14:11;10.73;;;2.22;;
55136;SDS011;41032;47.818;-3.732;2022-09-09T08:16:40;9.40;;;2.53;;
55136;SDS011;41032;47.818;-3.732;2022-09-09T08:19:11;11.15;;;2.60;;
55136;SDS011;41032;47.818;-3.732;2022-09-09T08:21:41;10.30;;;2.45;;
55136;SDS011;41032;47.818;-3.732;2022-09-09T08:24:10;6.90;;;2.00;;
55136;SDS011;41032;47.818;-3.732;2022-09-09T08:26:41;13.02;;;2.83;;
55136;SDS011;41032;47.818;-3.732;2022-09-09T08:29:11;11.77;;;2.35;;
55136;SDS011;41032;47.818;-3.732;2022-09-09T08:31:42;9.32;;;2.30;;
55136;SDS011;41032;47.818;-3.732;2022-09-09T08:34:11;6.28;;;1.95;;
55136;SDS011;41032;47.818;-3.732;2022-09-09T08:36:42;8.23;;;2.03;;
55136;SDS011;41032;47.818;-3.732;2022-09-09T08:39:12;6.82;;;1.70;;
55136;SDS011;41032;47.818;-3.732;2022-09-09T08:50:07;6.00;;;1.67;;
55136;SDS011;41032;47.818;-3.732;2022-09-09T08:56:01;7.30;;;1.60;;
55136;SDS011;41032;47.818;-3.732;2022-09-09T08:58:26;8.40;;;1.60;;
55136;SDS011;41032;47.818;-3.732;2022-09-09T09:06:55;4.03;;;1.35;;
55136;SDS011;41032;47.818;-3.732;2022-09-09T09:12:19;6.32;;;1.45;;
55136;SDS011;41032;47.818;-3.732;2022-09-09T09:14:49;11.35;;;2.53;;
55136;SDS011;41032;47.818;-3.732;2022-09-09T09:17:19;7.75;;;1.95;;
55136;SDS011;41032;47.818;-3.732;2022-09-09T09:19:47;6.50;;;2.28;;
55136;SDS011;41032;47.818;-3.732;2022-09-09T09:30:21;6.90;;;1.98;;
55136;SDS011;41032;47.818;-3.732;2022-09-09T09:32:59;10.98;;;2.75;;
55136;SDS011;41032;47.818;-3.732;2022-09-09T09:35:48;11.87;;;2.73;;
55136;SDS011;41032;47.818;-3.732;2022-09-09T09:41:42;10.43;;;2.75;;
55136;SDS011;41032;47.818;-3.732;2022-09-09T09:44:31;11.07;;;2.70;;
55136;SDS011;41032;47.818;-3.732;2022-09-09T09:47:19;9.73;;;2.70;;
55136;SDS011;41032;47.818;-3.732;2022-09-09T09:49:56;11.13;;;2.35;;
55136;SDS011;41032;47.818;-3.732;2022-09-09T09:52:26;13.07;;;2.72;;
55136;SDS011;41032;47.818;-3.732;2022-09-09T09:54:55;10.80;;;2.67;;
55136;SDS011;41032;47.818;-3.732;2022-09-09T09:57:26;9.82;;;2.20;;
55136;SDS011;41032;47.818;-3.732;2022-09-09T10:00:17;8.15;;;1.63;;
55136;SDS011;41032;47.818;-3.732;2022-09-09T10:02:45;8.13;;;1.92;;
55136;SDS011;41032;47.818;-3.732;2022-09-09T10:05:16;7.28;;;1.98;;
55136;SDS011;41032;47.818;-3.732;2022-09-09T10:07:47;7.93;;;2.00;;
55136;SDS011;41032;47.818;-3.732;2022-09-09T10:10:42;7.75;;;1.83;;
55136;SDS011;41032;47.818;-3.732;2022-09-09T10:13:21;6.45;;;2.55;;
55136;SDS011;41032;47.818;-3.732;2022-09-09T10:18:29;7.30;;;1.60;;
55136;SDS011;41032;47.818;-3.732;2022-09-09T10:26:59;5.47;;;1.80;;
55136;SDS011;41032;47.818;-3.732;2022-09-09T10:29:38;5.28;;;1.27;;
55136;SDS011;41032;47.818;-3.732;2022-09-09T10:32:18;8.50;;;1.60;;
55136;SDS011;41032;47.818;-3.732;2022-09-09T10:35:10;4.20;;;1.30;;
55136;SDS011;41032;47.818;-3.732;2022-09-09T10:38:26;6.75;;;1.83;;
55136;SDS011;41032;47.818;-3.732;2022-09-09T10:48:58;4.65;;;1.27;;
55136;SDS011;41032;47.818;-3.732;2022-09-09T10:54:24;6.00;;;1.58;;
55136;SDS011;41032;47.818;-3.732;2022-09-09T10:56:57;5.72;;;1.40;;
55136;SDS011;41032;47.818;-3.732;2022-09-09T10:59:33;3.05;;;1.35;;
55136;SDS011;41032;47.818;-3.732;2022-09-09T11:02:28;4.22;;;1.10;;
55136;SDS011;41032;47.818;-3.732;2022-09-09T11:07:44;6.75;;;1.50;;
55136;SDS011;41032;47.818;-3.732;2022-09-09T11:10:25;5.57;;;1.58;;
55136;SDS011;41032;47.818;-3.732;2022-09-09T11:13:01;5.78;;;1.05;;
55136;SDS011;41032;47.818;-3.732;2022-09-09T11:15:34;5.68;;;1.48;;
55136;SDS011;41032;47.818;-3.732;2022-09-09T11:18:09;4.30;;;1.25;;
55136;SDS011;41032;47.818;-3.732;2022-09-09T11:23:13;7.55;;;1.80;;
55136;SDS011;41032;47.818;-3.732;2022-09-09T11:25:50;7.28;;;1.50;;
55136;SDS011;41032;47.818;-3.732;2022-09-09T11:30:59;6.70;;;1.52;;
55136;SDS011;41032;47.818;-3.732;2022-09-09T11:37:05;5.97;;;1.88;;
55136;SDS011;41032;47.818;-3.732;2022-09-09T11:39:51;4.95;;;2.10;;
55136;SDS011;41032;47.818;-3.732;2022-09-09T11:42:28;6.15;;;1.85;;
55136;SDS011;41032;47.818;-3.732;2022-09-09T11:44:56;4.07;;;1.60;;
55136;SDS011;41032;47.818;-3.732;2022-09-09T11:47:27;10.13;;;1.70;;
55136;SDS011;41032;47.818;-3.732;2022-09-09T11:52:45;4.55;;;1.58;;
55136;SDS011;41032;47.818;-3.732;2022-09-09T11:55:34;6.03;;;1.58;;
55136;SDS011;41032;47.818;-3.732;2022-09-09T11:58:03;4.68;;;1.20;;
55136;SDS011;41032;47.818;-3.732;2022-09-09T12:00:43;5.15;;;1.42;;
55136;SDS011;41032;47.818;-3.732;2022-09-09T12:03:55;5.75;;;1.67;;
55136;SDS011;41032;47.818;-3.732;2022-09-09T12:06:08;6.07;;;1.42;;
55136;SDS011;41032;47.818;-3.732;2022-09-09T12:08:50;8.23;;;2.08;;
55136;SDS011;41032;47.818;-3.732;2022-09-09T12:11:25;7.00;;;1.60;;
55136;SDS011;41032;47.818;-3.732;2022-09-09T12:13:54;4.60;;;1.48;;
55136;SDS011;41032;47.818;-3.732;2022-09-09T12:16:28;6.35;;;1.67;;
55136;SDS011;41032;47.818;-3.732;2022-09-09T12:21:42;11.23;;;1.13;;
55136;SDS011;41032;47.818;-3.732;2022-09-09T12:24:19;3.42;;;1.20;;
55136;SDS011;41032;47.818;-3.732;2022-09-09T12:29:55;3.25;;;0.60;;
55136;SDS011;41032;47.818;-3.732;2022-09-09T12:32:45;3.22;;;0.80;;
55136;SDS011;41032;47.818;-3.732;2022-09-09T12:35:24;3.40;;;1.48;;
55136;SDS011;41032;47.818;-3.732;2022-09-09T12:38:00;4.72;;;1.88;;
55136;SDS011;41032;47.818;-3.732;2022-09-09T12:40:58;3.08;;;0.80;;
55136;SDS011;41032;47.818;-3.732;2022-09-09T12:43:28;2.78;;;1.08;;
55136;SDS011;41032;47.818;-3.732;2022-09-09T12:45:58;3.20;;;0.88;;
55136;SDS011;41032;47.818;-3.732;2022-09-09T12:48:31;3.85;;;0.88;;
55136;SDS011;41032;47.818;-3.732;2022-09-09T12:51:03;2.95;;;1.10;;
55136;SDS011;41032;47.818;-3.732;2022-09-09T12:53:35;2.83;;;0.75;;
55136;SDS011;41032;47.818;-3.732;2022-09-09T12:56:07;4.68;;;1.35;;
55136;SDS011;41032;47.818;-3.732;2022-09-09T12:58:36;5.60;;;1.40;;
55136;SDS011;41032;47.818;-3.732;2022-09-09T13:01:06;6.82;;;2.00;;
55136;SDS011;41032;47.818;-3.732;2022-09-09T13:03:55;2.67;;;0.95;;
55136;SDS011;41032;47.818;-3.732;2022-09-09T13:06:24;5.47;;;1.60;;
55136;SDS011;41032;47.818;-3.732;2022-09-09T13:08:55;4.00;;;0.95;;
55136;SDS011;41032;47.818;-3.732;2022-09-09T13:11:26;5.00;;;1.30;;
55136;SDS011;41032;47.818;-3.732;2022-09-09T13:14:15;6.10;;;1.60;;
55136;SDS011;41032;47.818;-3.732;2022-09-09T13:16:56;5.40;;;1.67;;
55136;SDS011;41032;47.818;-3.732;2022-09-09T13:19:26;5.13;;;1.30;;
55136;SDS011;41032;47.818;-3.732;2022-09-09T13:21:58;8.82;;;1.70;;
55136;SDS011;41032;47.818;-3.732;2022-09-09T13:24:27;6.57;;;1.60;;
55136;SDS011;41032;47.818;-3.732;2022-09-09T13:26:59;7.38;;;2.15;;
55136;SDS011;41032;47.818;-3.732;2022-09-09T13:29:29;6.15;;;1.33;;
55136;SDS011;41032;47.818;-3.732;2022-09-09T13:32:15;4.35;;;1.35;;
55136;SDS011;41032;47.818;-3.732;2022-09-09T13:35:22;4.63;;;1.25;;
55136;SDS011;41032;47.818;-3.732;2022-09-09T13:37:34;5.25;;;1.80;;
55136;SDS011;41032;47.818;-3.732;2022-09-09T13:40:04;7.85;;;1.60;;
55136;SDS011;41032;47.818;-3.732;2022-09-09T13:42:34;6.57;;;1.60;;
55136;SDS011;41032;47.818;-3.732;2022-09-09T13:45:14;5.78;;;1.35;;
55136;SDS011;41032;47.818;-3.732;2022-09-09T13:47:48;4.57;;;1.40;;
55136;SDS011;41032;47.818;-3.732;2022-09-09T13:50:23;5.95;;;1.40;;
55136;SDS011;41032;47.818;-3.732;2022-09-09T13:52:52;6.03;;;1.27;;
55136;SDS011;41032;47.818;-3.732;2022-09-09T13:55:24;5.95;;;1.52;;
55136;SDS011;41032;47.818;-3.732;2022-09-09T13:57:54;5.22;;;1.27;;
55136;SDS011;41032;47.818;-3.732;2022-09-09T14:00:26;5.25;;;1.42;;
55136;SDS011;41032;47.818;-3.732;2022-09-09T14:02:56;6.78;;;1.55;;
55136;SDS011;41032;47.818;-3.732;2022-09-09T14:05:28;6.55;;;1.92;;
55136;SDS011;41032;47.818;-3.732;2022-09-09T14:07:57;6.20;;;1.13;;
55136;SDS011;41032;47.818;-3.732;2022-09-09T14:10:26;6.82;;;1.58;;
55136;SDS011;41032;47.818;-3.732;2022-09-09T14:12:55;4.47;;;1.20;;
55136;SDS011;41032;47.818;-3.732;2022-09-09T14:15:23;7.50;;;2.00;;
55136;SDS011;41032;47.818;-3.732;2022-09-09T14:17:52;7.20;;;2.10;;
55136;SDS011;41032;47.818;-3.732;2022-09-09T14:20:21;9.98;;;2.10;;
55136;SDS011;41032;47.818;-3.732;2022-09-09T14:22:49;7.13;;;1.98;;
55136;SDS011;41032;47.818;-3.732;2022-09-09T14:25:19;7.10;;;1.90;;
55136;SDS011;41032;47.818;-3.732;2022-09-09T14:27:47;4.82;;;1.33;;
55136;SDS011;41032;47.818;-3.732;2022-09-09T14:30:17;7.13;;;1.48;;
55136;SDS011;41032;47.818;-3.732;2022-09-09T14:32:45;5.85;;;1.33;;
55136;SDS011;41032;47.818;-3.732;2022-09-09T14:35:14;4.55;;;1.35;;
55136;SDS011;41032;47.818;-3.732;2022-09-09T14:37:44;7.13;;;1.23;;
55136;SDS011;41032;47.818;-3.732;2022-09-09T14:40:15;3.80;;;0.80;;
55136;SDS011;41032;47.818;-3.732;2022-09-09T14:42:43;7.72;;;1.50;;
55136;SDS011;41032;47.818;-3.732;2022-09-09T14:45:11;4.75;;;1.45;;
55136;SDS011;41032;47.818;-3.732;2022-09-09T14:47:40;6.20;;;1.50;;
55136;SDS011;41032;47.818;-3.732;2022-09-09T14:50:10;6.03;;;1.20;;
55136;SDS011;41032;47.818;-3.732;2022-09-09T14:52:38;3.75;;;1.45;;
55136;SDS011;41032;47.818;-3.732;2022-09-09T14:55:06;3.88;;;1.00;;
55136;SDS011;41032;47.818;-3.732;2022-09-09T14:57:36;5.10;;;1.50;;
55136;SDS011;41032;47.818;-3.732;2022-09-09T15:00:06;9.70;;;1.40;;
55136;SDS011;41032;47.818;-3.732;2022-09-09T15:02:34;4.28;;;1.35;;
55136;SDS011;41032;47.818;-3.732;2022-09-09T15:05:03;5.03;;;1.10;;
55136;SDS011;41032;47.818;-3.732;2022-09-09T15:07:32;3.50;;;1.10;;
55136;SDS011;41032;47.818;-3.732;2022-09-09T15:10:00;7.55;;;1.25;;
55136;SDS011;41032;47.818;-3.732;2022-09-09T15:12:28;6.57;;;1.60;;
55136;SDS011;41032;47.818;-3.732;2022-09-09T15:14:57;7.60;;;1.52;;
55136;SDS011;41032;47.818;-3.732;2022-09-09T15:17:25;5.28;;;1.33;;
55136;SDS011;41032;47.818;-3.732;2022-09-09T15:19:54;8.35;;;1.65;;
55136;SDS011;41032;47.818;-3.732;2022-09-09T15:22:22;5.05;;;1.60;;
55136;SDS011;41032;47.818;-3.732;2022-09-09T15:24:50;6.20;;;1.25;;
55136;SDS011;41032;47.818;-3.732;2022-09-09T15:27:18;4.28;;;1.00;;
55136;SDS011;41032;47.818;-3.732;2022-09-09T15:29:50;6.45;;;1.45;;
55136;SDS011;41032;47.818;-3.732;2022-09-09T15:32:18;4.35;;;1.30;;
55136;SDS011;41032;47.818;-3.732;2022-09-09T15:34:46;4.63;;;1.70;;
55136;SDS011;41032;47.818;-3.732;2022-09-09T15:37:17;4.05;;;1.25;;
55136;SDS011;41032;47.818;-3.732;2022-09-09T15:39:46;7.38;;;1.60;;
55136;SDS011;41032;47.818;-3.732;2022-09-09T15:42:15;5.45;;;0.98;;
55136;SDS011;41032;47.818;-3.732;2022-09-09T15:44:42;5.05;;;1.30;;
55136;SDS011;41032;47.818;-3.732;2022-09-09T15:47:11;3.20;;;1.08;;
55136;SDS011;41032;47.818;-3.732;2022-09-09T15:49:39;4.50;;;1.10;;
55136;SDS011;41032;47.818;-3.732;2022-09-09T15:52:09;4.30;;;1.33;;
55136;SDS011;41032;47.818;-3.732;2022-09-09T15:54:37;5.93;;;1.10;;
55136;SDS011;41032;47.818;-3.732;2022-09-09T15:57:06;3.58;;;0.73;;
55136;SDS011;41032;47.818;-3.732;2022-09-09T15:59:36;3.78;;;1.08;;
55136;SDS011;41032;47.818;-3.732;2022-09-09T16:02:04;3.40;;;0.90;;
55136;SDS011;41032;47.818;-3.732;2022-09-09T16:04:32;6.15;;;1.20;;
55136;SDS011;41032;47.818;-3.732;2022-09-09T16:07:00;3.80;;;0.55;;
55136;SDS011;41032;47.818;-3.732;2022-09-09T16:09:29;6.25;;;1.20;;
55136;SDS011;41032;47.818;-3.732;2022-09-09T16:11:57;3.75;;;1.20;;
55136;SDS011;41032;47.818;-3.732;2022-09-09T16:14:27;4.85;;;1.00;;
55136;SDS011;41032;47.818;-3.732;2022-09-09T16:16:59;2.45;;;0.93;;
55136;SDS011;41032;47.818;-3.732;2022-09-09T16:19:27;7.43;;;0.90;;
55136;SDS011;41032;47.818;-3.732;2022-09-09T16:21:54;2.78;;;0.73;;
55136;SDS011;41032;47.818;-3.732;2022-09-09T16:24:23;3.90;;;1.30;;
55136;SDS011;41032;47.818;-3.732;2022-09-09T16:26:52;5.45;;;1.02;;
55136;SDS011;41032;47.818;-3.732;2022-09-09T16:29:21;6.15;;;1.08;;
55136;SDS011;41032;47.818;-3.732;2022-09-09T16:31:49;2.90;;;0.73;;
55136;SDS011;41032;47.818;-3.732;2022-09-09T16:34:17;6.68;;;1.60;;
55136;SDS011;41032;47.818;-3.732;2022-09-09T16:36:45;4.20;;;1.10;;
55136;SDS011;41032;47.818;-3.732;2022-09-09T16:39:15;3.20;;;0.80;;
55136;SDS011;41032;47.818;-3.732;2022-09-09T16:41:45;6.70;;;1.13;;
55136;SDS011;41032;47.818;-3.732;2022-09-09T16:44:15;4.88;;;1.40;;
55136;SDS011;41032;47.818;-3.732;2022-09-09T16:46:45;5.88;;;1.10;;